Scroll down
FLIGHT INFORMATION
SAS Scandinavian Airlines

SAS7490

At Arrival Gate

LGSA
 ENGM
DATE: 2020-11-22
GATE: 
GATE DEPARTURE: 18:05
TAKEOFF: 18:16
DATE: 2020-11-22
GATE: G11
LANDING: 22:25
GATE ARRIVAL: 22:28
FLIGHT DATA
Crew: 
Speed: 
887 kph
Altitude: 
38,019 ft
Stage Length: 
2,899.0 km
Block Time: 
4.3 hrs
Flight Time: 
4.1 hrs
Fuel Used: 
10,448 kg
Cleared Route: LGSA SUD RESTI MIL SOREV AKORO KEA SKP PEREN REFUS ATFIR USALI OGOTA RESLA ERDOM LOMOS REBLA VAMES RUMUK SVITA DIBED OSMAT UREKO NEVAP OGVET MONOV VADOL EGLON NETAB LIMVI ADURU OLILA MEBIV RILAB SOMOR GRUDA IRLUN KARTI BABOT LARMA SABAK XENTA REGMA LUNIP ENGM
TRACK DATA
50,000 ft 1,000 kts
AIRCRAFT INFO AND CUMULATIVE STATS
Aircraft Type: 
B737BW
Registration: 
SELCAL: 
MSN/LN: 
34754 / 2172
Total Flights: 
1
Total Block Time: 
4.3 hrs
Total Flight Time: 
4.1 hrs
Total Fuel Used: 
10,448 kg
DATALINK LOG | Newest first | Current as of: 2022-10-05 22:20:55
LABEL SEQUENCE CONTENT Dn/Up
5Z310222 NOV 20 22:30:18z / FLT DECK GOOD / ACF POS GOOD / GRND SERVICES GOOD / MAINT FAILURES ACTIVE▼ Dn
QD290122:28 8▼ Dn
QC255822:25▼ Dn
2U1717ENGM 222150Z 23007KT CAVOK 05/M05 Q1001 NOSIG▲ Up
2S1750ENGM▼ Dn
GA4834GATE G11▲ Up
GR4823ENGM 22:23 HI-VAL NO DIPL/VIP NO▼ Dn
2U4000ENGM 222120Z 22006KT 190V250 CAVOK 05/M04 Q1001 NOSIG▲ Up
2S4015ENGM▼ Dn
UM201663CLEARED TO FL 380▲ Up
DM61653REQUEST FL 380 DUE TO A/C PERF▼ Dn
QB165518:16▼ Dn
QA054418:05 31.1▼ Dn
5Z014022 NOV 20 18:00:40z / FLT DECK GOOD / ACF POS GOOD / GRND SERVICES GOOD / MAINT GOOD▼ Dn
2U5323LGSA 221650Z 00000KT 9999 FEW020 BKN030 BKN080 14/12 Q1025▲ Up
2S5334LGSA▼ Dn
A34636CLEARED TO ENGM VIA SUD UJ56 MIL UL617 SKP UV652 PEREN UN133 ATFIR N133 LOMOS T491 REBLA M977 OSMAT L621 GRUDA N133 KARTI Y41 SABAK L997 LUNIP LUNI4M. SQUAWK 2355.▲ Up
B34626LGSA ENGM SAS7490 SE-RJX ▼ Dn
Q04424[LINK ACK]▲ Up
Q04424[LINK TEST]▼ Dn


AIRCRAFT HISTORY
FLIGHT DATE FLIGHT NO. ORIGIN DESTINATION CLEARED ROUTE BLOCK TIME FLIGHT TIME FUEL USED PILOT
2020-11-22SAS7490LGSA ENGM LGSA SUD RESTI MIL SOREV AKORO KEA SKP PEREN REFUS ATFIR USALI OGOTA RESLA ERDOM LOMOS REBLA VAMES RUMUK SVITA DIBED OSMAT UREKO NEVAP OGVET MONOV VADOL EGLON NETAB LIMVI ADURU OLILA MEBIV RILAB SOMOR GRUDA IRLUN KARTI BABOT LARMA SABAK XENTA REGMA LUNIP ENGM4.3 hrs4.1 hrs23,033 lbAnton Vind